createdAt,value
2023-04-18T00:01:02.013Z,75.21
2023-04-18T00:03:30.320Z,75.08
2023-04-18T00:05:58.316Z,75.05
2023-04-18T00:08:26.183Z,75.08
2023-04-18T00:10:54.142Z,75.11
2023-04-18T00:13:22.169Z,74.76
2023-04-18T00:15:49.930Z,74.98
2023-04-18T00:18:17.839Z,75.05
2023-04-18T00:20:46.467Z,74.89
2023-04-18T00:23:14.917Z,75.30
2023-04-18T00:25:42.786Z,75.32
2023-04-18T00:28:10.800Z,75.33
2023-04-18T00:30:38.568Z,75.33
2023-04-18T00:33:06.630Z,75.36
2023-04-18T00:35:34.850Z,75.40
2023-04-18T00:38:02.649Z,75.25
2023-04-18T00:40:30.736Z,75.37
2023-04-18T00:42:59.541Z,75.17
2023-04-18T00:45:27.374Z,75.07
2023-04-18T00:47:58.390Z,75.68
2023-04-18T00:50:26.417Z,75.68
2023-04-18T00:52:54.762Z,75.57
2023-04-18T00:55:22.661Z,75.73
2023-04-18T00:57:51.444Z,75.75
2023-04-18T01:00:19.400Z,75.63
2023-04-18T01:02:50.123Z,75.55
2023-04-18T01:05:18.790Z,75.65
2023-04-18T01:07:46.549Z,75.91
2023-04-18T01:10:14.674Z,75.85
2023-04-18T01:12:42.382Z,75.85
2023-04-18T01:15:10.457Z,76.06
2023-04-18T01:17:38.691Z,75.95
2023-04-18T01:20:07.168Z,75.88
2023-04-18T01:22:35.068Z,76.08
2023-04-18T01:25:07.595Z,75.89
2023-04-18T01:27:35.421Z,75.99
2023-04-18T01:30:03.631Z,75.95
2023-04-18T01:32:31.401Z,76.03
2023-04-18T01:35:03.537Z,76.11
2023-04-18T01:37:31.890Z,76.21
2023-04-18T01:40:00.206Z,76.40
2023-04-18T01:42:27.928Z,76.10
2023-04-18T01:44:55.799Z,76.10
2023-04-18T01:47:23.665Z,76.26
2023-04-18T01:49:53.017Z,76.12
2023-04-18T01:52:20.909Z,76.31
2023-04-18T01:54:49.023Z,76.18
2023-04-18T01:57:16.853Z,76.45
2023-04-18T01:59:44.680Z,76.61
2023-04-18T02:02:12.793Z,76.43
2023-04-18T02:04:41.111Z,76.67
2023-04-18T02:07:11.788Z,76.44
2023-04-18T02:09:39.847Z,76.76
2023-04-18T02:12:10.797Z,76.79
2023-04-18T02:14:38.797Z,76.91
2023-04-18T02:17:06.737Z,76.88
2023-04-18T02:19:34.799Z,76.84
2023-04-18T02:22:02.734Z,76.68
2023-04-18T02:24:30.530Z,76.97
2023-04-18T02:26:58.446Z,76.99
2023-04-18T02:29:26.145Z,76.98
2023-04-18T02:31:54.177Z,76.40
2023-04-18T02:34:21.882Z,76.59
2023-04-18T02:36:54.533Z,76.78
2023-04-18T02:39:22.248Z,77.14
2023-04-18T02:41:50.246Z,77.15
2023-04-18T02:44:17.976Z,77.02
2023-04-18T02:46:46.204Z,77.11
2023-04-18T02:49:14.335Z,76.75
2023-04-18T02:51:42.295Z,77.06
2023-04-18T02:54:10.566Z,77.04
2023-04-18T02:56:40.246Z,76.69
2023-04-18T02:59:07.994Z,76.91
2023-04-18T03:01:36.501Z,76.81
2023-04-18T03:04:04.532Z,76.88
2023-04-18T03:06:32.677Z,76.82
2023-04-18T03:09:00.730Z,77.07
2023-04-18T03:11:28.664Z,76.86
2023-04-18T03:13:56.484Z,77.18
2023-04-18T03:16:24.806Z,77.10
2023-04-18T03:18:52.541Z,76.96
2023-04-18T03:21:20.774Z,77.04
2023-04-18T03:23:48.947Z,77.35
2023-04-18T03:26:16.879Z,76.93
2023-04-18T03:28:46.062Z,76.76
2023-04-18T03:31:13.871Z,77.30
2023-04-18T03:33:44.375Z,76.97
2023-04-18T03:36:15.823Z,77.14
2023-04-18T03:38:44.170Z,77.00
2023-04-18T03:41:12.190Z,77.09
2023-04-18T03:43:39.912Z,77.26
2023-04-18T03:46:07.787Z,77.18
2023-04-18T03:48:37.381Z,77.04
2023-04-18T03:51:06.402Z,76.89
2023-04-18T03:53:34.213Z,77.13
2023-04-18T03:56:02.036Z,77.13
2023-04-18T03:58:29.954Z,77.18
2023-04-18T04:00:57.776Z,76.96
2023-04-18T04:03:27.989Z,76.86
2023-04-18T04:05:56.049Z,77.24
2023-04-18T04:08:28.234Z,77.21
2023-04-18T04:10:56.329Z,77.19
2023-04-18T04:13:24.369Z,77.10
2023-04-18T04:15:52.226Z,77.15
2023-04-18T04:18:20.592Z,76.84
2023-04-18T04:20:48.306Z,77.10
2023-04-18T04:23:16.034Z,76.89
2023-04-18T04:25:46.459Z,77.25
2023-04-18T04:28:14.198Z,77.18
2023-04-18T04:30:42.024Z,77.27
2023-04-18T04:33:09.754Z,77.57
2023-04-18T04:35:37.753Z,77.32
2023-04-18T04:38:05.972Z,77.31
2023-04-18T04:40:34.014Z,77.35
2023-04-18T04:43:01.899Z,77.33
2023-04-18T04:45:29.906Z,77.38
2023-04-18T04:47:57.833Z,77.50
2023-04-18T04:50:25.629Z,77.27
2023-04-18T04:52:53.480Z,77.52
2023-04-18T04:55:21.415Z,77.40
2023-04-18T04:57:49.265Z,77.64
2023-04-18T05:00:20.986Z,77.57
2023-04-18T05:02:49.458Z,77.92
2023-04-18T05:05:17.666Z,77.87
2023-04-18T05:07:45.440Z,77.53
2023-04-18T05:10:13.302Z,77.68
2023-04-18T05:12:41.175Z,77.81
2023-04-18T05:15:09.281Z,77.81
2023-04-18T05:17:37.314Z,77.55
2023-04-18T05:20:06.054Z,77.85
2023-04-18T05:22:34.017Z,77.84
2023-04-18T05:25:02.718Z,77.59
2023-04-18T05:27:30.616Z,77.93
2023-04-18T05:29:58.522Z,77.63
2023-04-18T05:32:26.379Z,77.73
2023-04-18T05:34:54.159Z,77.81
2023-04-18T05:37:22.669Z,77.89
2023-04-18T05:39:50.493Z,77.70
2023-04-18T05:42:18.595Z,77.76
2023-04-18T05:44:46.421Z,77.83
2023-04-18T05:47:14.272Z,77.95
2023-04-18T05:49:42.062Z,77.88
2023-04-18T05:52:09.915Z,78.08
2023-04-18T05:54:37.644Z,78.28
2023-04-18T05:57:06.005Z,77.92
2023-04-18T05:59:33.929Z,78.02
2023-04-18T06:02:02.174Z,78.09
2023-04-18T06:04:30.315Z,78.13
2023-04-18T06:06:58.198Z,78.21
2023-04-18T06:09:26.816Z,78.33
2023-04-18T06:11:54.716Z,78.07
2023-04-18T06:14:22.813Z,78.13
2023-04-18T06:16:50.835Z,78.06
2023-04-18T06:19:18.781Z,78.27
2023-04-18T06:21:49.746Z,78.14
2023-04-18T06:24:17.813Z,78.26
2023-04-18T06:26:45.759Z,78.73
2023-04-18T06:29:13.525Z,78.52
2023-04-18T06:31:42.427Z,78.36
2023-04-18T06:34:10.184Z,78.50
2023-04-18T06:36:38.164Z,78.37
2023-04-18T06:39:06.065Z,78.60
2023-04-18T06:41:33.997Z,78.66
2023-04-18T06:44:03.365Z,78.56
2023-04-18T06:46:42.883Z,78.56
2023-04-18T06:49:10.768Z,78.56
2023-04-18T06:51:38.522Z,78.50
2023-04-18T06:54:06.301Z,78.79
2023-04-18T06:56:36.395Z,78.69
2023-04-18T06:59:04.444Z,78.54
2023-04-18T07:01:35.506Z,78.55
2023-04-18T07:04:03.644Z,78.56
2023-04-18T07:06:31.690Z,78.61
2023-04-18T07:09:02.197Z,78.74
2023-04-18T07:11:30.062Z,78.59
2023-04-18T07:13:57.975Z,78.72
2023-04-18T07:16:27.470Z,78.83
2023-04-18T07:18:55.585Z,78.46
2023-04-18T07:21:24.024Z,78.55
2023-04-18T07:23:52.069Z,78.57
2023-04-18T07:26:19.974Z,78.51
2023-04-18T07:28:47.707Z,78.24
2023-04-18T07:31:16.772Z,78.35
2023-04-18T07:33:45.139Z,78.94
2023-04-18T07:36:13.013Z,78.50
2023-04-18T07:38:40.754Z,79.03
2023-04-18T07:41:08.759Z,78.76
2023-04-18T07:43:36.526Z,78.91
2023-04-18T07:46:05.488Z,78.47
2023-04-18T07:48:33.616Z,78.76
2023-04-18T07:51:01.460Z,78.97
2023-04-18T07:53:29.465Z,79.21
2023-04-18T07:55:57.146Z,78.87
2023-04-18T07:58:24.949Z,78.82
2023-04-18T08:00:53.028Z,78.82
2023-04-18T08:03:21.138Z,78.87
2023-04-18T08:05:50.326Z,78.94
2023-04-18T08:08:18.275Z,78.98
2023-04-18T08:10:46.362Z,78.88
2023-04-18T08:13:14.269Z,78.96
2023-04-18T08:15:42.676Z,78.94
2023-04-18T08:18:10.895Z,78.99
2023-04-18T08:20:41.419Z,79.18
2023-04-18T08:23:12.211Z,79.35
2023-04-18T08:25:41.615Z,79.18
2023-04-18T08:28:09.449Z,79.19
2023-04-18T08:30:37.438Z,79.47
2023-04-18T08:33:05.335Z,79.11
2023-04-18T08:35:34.264Z,79.20
2023-04-18T08:38:02.760Z,79.35
2023-04-18T08:40:30.687Z,79.09
2023-04-18T08:43:01.310Z,78.89
2023-04-18T08:45:29.707Z,79.14
2023-04-18T08:48:01.623Z,79.46
2023-04-18T08:50:29.521Z,79.40
2023-04-18T08:52:59.807Z,79.00
2023-04-18T08:55:27.687Z,79.11
2023-04-18T08:57:56.171Z,79.14
2023-04-18T09:00:23.981Z,79.28
2023-04-18T09:02:57.167Z,79.11
2023-04-18T09:05:27.367Z,79.35
2023-04-18T09:07:56.312Z,79.24
2023-04-18T09:10:33.552Z,79.40
2023-04-18T09:13:05.695Z,79.23
2023-04-18T09:15:34.693Z,79.09
2023-04-18T09:18:03.342Z,79.38
2023-04-18T09:20:41.743Z,79.43
2023-04-18T09:23:11.619Z,79.30
2023-04-18T09:25:45.408Z,79.02
2023-04-18T09:28:27.227Z,79.12
2023-04-18T09:30:59.437Z,78.99
2023-04-18T09:33:29.446Z,78.88
2023-04-18T09:36:20.097Z,79.54
2023-04-18T09:38:54.632Z,79.11
2023-04-18T09:41:24.988Z,79.03
2023-04-18T09:44:12.356Z,78.99
2023-04-18T09:46:44.484Z,78.89
2023-04-18T09:49:14.535Z,78.58
2023-04-18T09:51:43.970Z,78.58
2023-04-18T09:54:15.501Z,78.90
2023-04-18T09:56:48.087Z,78.58
2023-04-18T09:59:18.673Z,78.67
2023-04-18T10:01:49.907Z,79.08
2023-04-18T10:04:18.445Z,78.72
2023-04-18T10:06:47.004Z,78.65
2023-04-18T10:09:16.339Z,78.47
2023-04-18T10:11:44.548Z,78.61
2023-04-18T10:14:13.878Z,78.36
2023-04-18T10:16:46.075Z,78.55
2023-04-18T10:19:26.131Z,78.44
2023-04-18T10:22:01.571Z,78.67
2023-04-18T10:24:48.733Z,78.52
2023-04-18T10:27:17.888Z,78.27
2023-04-18T10:29:52.404Z,77.95
2023-04-18T10:32:23.454Z,78.18
2023-04-18T10:34:53.686Z,78.20
2023-04-18T10:37:21.801Z,78.37
2023-04-18T10:40:02.827Z,78.13
2023-04-18T10:42:52.850Z,77.79
2023-04-18T10:45:22.545Z,78.20
2023-04-18T10:47:50.937Z,77.88
2023-04-18T10:50:18.846Z,77.83
2023-04-18T10:52:46.734Z,78.12
2023-04-18T10:55:20.851Z,77.92
2023-04-18T10:57:52.299Z,78.02
2023-04-18T11:00:21.791Z,77.90
2023-04-18T11:02:52.509Z,77.51
2023-04-18T11:05:22.916Z,77.41
2023-04-18T11:07:51.499Z,77.57
2023-04-18T11:10:21.037Z,78.04
2023-04-18T11:12:49.610Z,77.89
2023-04-18T11:15:23.322Z,77.55
2023-04-18T11:18:17.434Z,77.99
2023-04-18T11:20:50.657Z,77.83
2023-04-18T11:23:22.857Z,77.92
2023-04-18T11:25:56.676Z,77.64
2023-04-18T11:28:27.409Z,77.28
2023-04-18T11:30:59.505Z,77.64
2023-04-18T11:33:28.742Z,77.79
2023-04-18T11:36:01.074Z,77.82
2023-04-18T11:38:33.937Z,77.59
2023-04-18T11:41:05.103Z,77.37
2023-04-18T11:43:33.885Z,77.86
2023-04-18T11:46:02.161Z,77.67
2023-04-18T11:48:56.849Z,77.63
2023-04-18T11:51:32.542Z,77.44
2023-04-18T11:54:00.741Z,77.19
2023-04-18T11:56:28.563Z,77.17
2023-04-18T11:58:56.517Z,77.27
2023-04-18T12:01:25.756Z,77.14
2023-04-18T12:04:01.635Z,77.38
2023-04-18T12:06:49.323Z,77.06
2023-04-18T12:09:17.701Z,77.31
2023-04-18T12:11:58.555Z,77.09
2023-04-18T12:14:45.572Z,77.37
2023-04-18T12:17:13.638Z,77.00
2023-04-18T12:19:46.991Z,76.91
2023-04-18T12:22:17.236Z,77.11
2023-04-18T12:24:45.120Z,77.14
2023-04-18T12:27:12.955Z,77.08
2023-04-18T12:29:41.028Z,76.82
2023-04-18T12:32:08.771Z,76.74
2023-04-18T12:34:36.515Z,76.84
2023-04-18T12:37:05.191Z,76.73
2023-04-18T12:39:32.950Z,76.73
2023-04-18T12:42:01.104Z,76.59
2023-04-18T12:44:29.080Z,76.71
2023-04-18T12:46:57.237Z,76.72
2023-04-18T12:49:24.995Z,76.53
2023-04-18T12:51:53.388Z,76.61
2023-04-18T12:54:21.179Z,76.25
2023-04-18T12:56:48.881Z,76.77
2023-04-18T12:59:17.511Z,76.84
2023-04-18T13:01:45.451Z,76.47
2023-04-18T13:04:13.670Z,76.47
2023-04-18T13:06:42.766Z,76.79
2023-04-18T13:09:11.080Z,76.22
2023-04-18T13:11:38.850Z,76.45
2023-04-18T13:14:07.247Z,76.15
2023-04-18T13:16:35.056Z,76.10
2023-04-18T13:19:02.897Z,75.87
2023-04-18T13:21:31.546Z,75.87
2023-04-18T13:23:59.319Z,75.78
2023-04-18T13:26:27.431Z,75.70
2023-04-18T13:28:55.709Z,75.57
2023-04-18T13:31:23.645Z,75.40
2023-04-18T13:33:51.950Z,75.30
2023-04-18T13:36:20.201Z,75.42
2023-04-18T13:38:48.584Z,75.07
2023-04-18T13:41:16.382Z,74.70
2023-04-18T13:43:44.224Z,74.52
2023-04-18T13:46:12.210Z,74.98
2023-04-18T13:48:40.076Z,74.68
2023-04-18T13:51:08.202Z,74.84
2023-04-18T13:53:36.128Z,74.87
2023-04-18T13:56:04.039Z,74.98
2023-04-18T13:58:32.232Z,74.64
2023-04-18T14:01:00.216Z,74.69
2023-04-18T14:03:28.931Z,74.63
2023-04-18T14:05:59.606Z,74.40
2023-04-18T14:08:27.323Z,74.40
2023-04-18T14:10:55.547Z,74.17
2023-04-18T14:13:23.597Z,74.27
2023-04-18T14:15:53.129Z,73.95
2023-04-18T14:18:21.903Z,73.97
2023-04-18T14:20:49.833Z,73.57
2023-04-18T14:23:18.085Z,73.64
2023-04-18T14:25:46.260Z,73.55
2023-04-18T14:28:14.416Z,73.48
2023-04-18T14:30:42.265Z,73.23
2023-04-18T14:33:10.290Z,72.95
2023-04-18T14:35:38.486Z,73.15
2023-04-18T14:38:06.504Z,73.37
2023-04-18T14:40:34.585Z,73.24
2023-04-18T14:43:02.675Z,73.25
2023-04-18T14:45:34.283Z,72.83
2023-04-18T14:48:02.499Z,72.51
2023-04-18T14:50:31.147Z,72.50
2023-04-18T14:52:59.108Z,72.26
2023-04-18T14:55:26.921Z,72.09
2023-04-18T14:57:54.929Z,71.98
2023-04-18T15:00:22.900Z,72.30
2023-04-18T15:02:50.919Z,72.12
2023-04-18T15:05:20.347Z,72.12
2023-04-18T15:07:48.365Z,72.33
2023-04-18T15:10:16.360Z,72.00
2023-04-18T15:12:46.956Z,71.83
2023-04-18T15:15:15.038Z,72.15
2023-04-18T15:17:42.951Z,72.00
2023-04-18T15:20:11.024Z,72.07
2023-04-18T15:22:39.115Z,71.88
2023-04-18T15:25:07.608Z,71.98
2023-04-18T15:27:35.591Z,72.00
2023-04-18T15:30:03.924Z,71.88
2023-04-18T15:32:32.883Z,71.96
2023-04-18T15:35:01.081Z,72.16
2023-04-18T15:37:28.962Z,71.96
2023-04-18T15:39:57.226Z,71.96
2023-04-18T15:42:25.487Z,72.37
2023-04-18T15:44:53.251Z,72.17
2023-04-18T15:47:21.488Z,72.31
2023-04-18T15:49:49.299Z,72.20
2023-04-18T15:52:17.178Z,72.13
2023-04-18T15:54:45.191Z,72.33
2023-04-18T15:57:13.050Z,72.37
2023-04-18T15:59:40.874Z,72.44
2023-04-18T16:02:09.058Z,72.33
2023-04-18T16:04:37.138Z,72.57
2023-04-18T16:07:05.146Z,72.51
2023-04-18T16:09:33.288Z,72.71
2023-04-18T16:12:03.343Z,72.79
2023-04-18T16:14:31.797Z,72.69
2023-04-18T16:16:59.823Z,72.71
2023-04-18T16:19:28.096Z,72.75
2023-04-18T16:21:55.955Z,72.93
2023-04-18T16:24:25.812Z,73.04
2023-04-18T16:26:55.622Z,73.13
2023-04-18T16:29:23.993Z,72.96
2023-04-18T16:31:51.992Z,73.14
2023-04-18T16:34:20.067Z,73.10
2023-04-18T16:36:50.738Z,73.15
2023-04-18T16:39:19.448Z,73.13
2023-04-18T16:41:47.569Z,73.22
2023-04-18T16:44:15.561Z,73.30
2023-04-18T16:46:43.831Z,73.01
2023-04-18T16:49:12.215Z,72.92
2023-04-18T16:51:40.708Z,73.09
2023-04-18T16:54:08.839Z,72.83
2023-04-18T16:56:36.763Z,73.05
2023-04-18T16:59:05.279Z,72.92
2023-04-18T17:01:34.072Z,73.17
2023-04-18T17:04:02.610Z,73.13
2023-04-18T17:06:31.570Z,73.19
2023-04-18T17:08:59.929Z,72.91
2023-04-18T17:11:28.318Z,73.29
2023-04-18T17:13:56.404Z,73.35
2023-04-18T17:16:24.675Z,73.27
2023-04-18T17:18:52.717Z,73.02
2023-04-18T17:21:20.632Z,73.22
2023-04-18T17:23:48.730Z,73.42
2023-04-18T17:26:16.946Z,73.60
2023-04-18T17:28:45.024Z,73.38
2023-04-18T17:31:16.240Z,73.47
2023-04-18T17:33:44.844Z,73.72
2023-04-18T17:36:12.949Z,73.72
2023-04-18T17:38:40.789Z,73.71
2023-04-18T17:41:09.005Z,73.88
2023-04-18T17:43:37.001Z,73.97
2023-04-18T17:46:05.178Z,74.04
2023-04-18T17:48:33.258Z,74.02
2023-04-18T17:51:01.381Z,73.86
2023-04-18T17:53:32.030Z,73.88
2023-04-18T17:56:00.503Z,74.03
2023-04-18T17:58:28.529Z,73.92
2023-04-18T18:00:56.654Z,74.13
2023-04-18T18:03:24.887Z,73.99
2023-04-18T18:05:55.134Z,73.96
2023-04-18T18:08:23.248Z,74.27
2023-04-18T18:10:51.690Z,74.11
2023-04-18T18:13:19.677Z,74.16
2023-04-18T18:15:47.841Z,74.02
2023-04-18T18:18:15.867Z,73.95
2023-04-18T18:20:43.898Z,74.00
2023-04-18T18:23:11.839Z,74.30
2023-04-18T18:25:40.406Z,73.91
2023-04-18T18:28:08.467Z,74.24
2023-04-18T18:30:38.281Z,74.19
2023-04-18T18:33:06.408Z,74.10
2023-04-18T18:35:35.172Z,74.43
2023-04-18T18:38:03.090Z,73.93
2023-04-18T18:40:31.380Z,74.19
2023-04-18T18:42:59.616Z,74.24
2023-04-18T18:45:27.550Z,74.45
2023-04-18T18:47:56.124Z,74.21
2023-04-18T18:50:24.046Z,74.16
2023-04-18T18:52:51.943Z,74.20
2023-04-18T18:55:20.527Z,74.11
2023-04-18T18:57:48.423Z,74.10
2023-04-18T19:00:16.884Z,74.16
2023-04-18T19:02:45.665Z,74.15
2023-04-18T19:05:13.711Z,74.21
2023-04-18T19:07:44.262Z,74.59
2023-04-18T19:10:12.282Z,74.15
2023-04-18T19:12:40.230Z,74.32
2023-04-18T19:15:08.701Z,74.15
2023-04-18T19:17:36.848Z,74.19
2023-04-18T19:20:05.360Z,74.34
2023-04-18T19:22:33.196Z,74.40
2023-04-18T19:25:01.659Z,74.17
2023-04-18T19:27:30.809Z,74.19
2023-04-18T19:29:58.662Z,73.95
2023-04-18T19:32:27.293Z,73.94
2023-04-18T19:34:55.325Z,74.43
2023-04-18T19:37:23.160Z,74.08
2023-04-18T19:39:51.353Z,74.03
2023-04-18T19:42:19.198Z,74.08
2023-04-18T19:44:46.979Z,73.64
2023-04-18T19:47:15.809Z,74.01
2023-04-18T19:49:44.517Z,73.80
2023-04-18T19:52:12.338Z,73.94
2023-04-18T19:54:40.516Z,73.89
2023-04-18T19:57:08.570Z,74.04
2023-04-18T19:59:36.629Z,73.73
2023-04-18T20:02:06.317Z,73.47
2023-04-18T20:04:36.920Z,73.76
2023-04-18T20:07:04.997Z,73.84
2023-04-18T20:09:33.004Z,73.57
2023-04-18T20:12:01.976Z,73.86
2023-04-18T20:14:30.534Z,73.73
2023-04-18T20:17:00.632Z,73.61
2023-04-18T20:19:29.927Z,73.70
2023-04-18T20:21:57.928Z,73.94
2023-04-18T20:24:28.368Z,73.87
2023-04-18T20:26:59.104Z,73.45
2023-04-18T20:29:27.741Z,73.82
2023-04-18T20:31:56.148Z,73.63
2023-04-18T20:34:24.028Z,73.72
2023-04-18T20:36:52.697Z,73.40
2023-04-18T20:39:20.826Z,73.46
2023-04-18T20:41:51.622Z,73.40
2023-04-18T20:44:21.200Z,73.56
2023-04-18T20:46:49.014Z,73.49
2023-04-18T20:49:17.043Z,73.44
2023-04-18T20:51:45.522Z,73.49
2023-04-18T20:54:13.744Z,73.48
2023-04-18T20:56:41.747Z,73.78
2023-04-18T20:59:09.843Z,73.90
2023-04-18T21:01:37.735Z,73.37
2023-04-18T21:04:05.624Z,73.80
2023-04-18T21:06:33.586Z,73.71
2023-04-18T21:09:01.634Z,73.48
2023-04-18T21:11:29.586Z,73.36
2023-04-18T21:13:57.583Z,73.52
2023-04-18T21:16:26.117Z,73.22
2023-04-18T21:18:55.255Z,73.11
2023-04-18T21:21:23.158Z,73.63
2023-04-18T21:23:51.229Z,73.36
2023-04-18T21:26:19.017Z,73.51
2023-04-18T21:28:54.767Z,73.48
2023-04-18T21:31:22.814Z,73.39
2023-04-18T21:33:55.387Z,73.63
2023-04-18T21:36:24.833Z,73.42
2023-04-18T21:38:54.012Z,73.61
2023-04-18T21:41:22.435Z,73.55
2023-04-18T21:43:50.685Z,73.29
2023-04-18T21:46:18.940Z,73.45
2023-04-18T21:48:47.765Z,73.15
2023-04-18T21:51:16.939Z,73.48
2023-04-18T21:53:44.864Z,73.24
2023-04-18T21:56:12.850Z,73.39
2023-04-18T21:58:40.624Z,73.37
2023-04-18T22:01:08.466Z,73.40
2023-04-18T22:03:37.315Z,72.73
2023-04-18T22:06:05.990Z,73.38
2023-04-18T22:08:33.897Z,73.16
2023-04-18T22:11:01.778Z,73.15
2023-04-18T22:13:35.888Z,72.93
2023-04-18T22:16:04.016Z,73.15
2023-04-18T22:18:37.943Z,72.76
2023-04-18T22:21:06.835Z,72.60
2023-04-18T22:23:34.641Z,72.84
2023-04-18T22:26:02.328Z,72.90
2023-04-18T22:28:30.531Z,72.70
2023-04-18T22:30:58.495Z,72.73
2023-04-18T22:33:26.414Z,72.89
2023-04-18T22:35:55.960Z,72.83
2023-04-18T22:38:25.399Z,72.64
2023-04-18T22:40:53.223Z,72.70
2023-04-18T22:43:23.944Z,72.68
2023-04-18T22:45:54.550Z,72.42
2023-04-18T22:48:22.584Z,72.91
2023-04-18T22:50:50.409Z,72.71
2023-04-18T22:53:18.176Z,72.99
2023-04-18T22:55:46.811Z,72.93
2023-04-18T22:58:14.792Z,72.48
2023-04-18T23:00:42.762Z,72.41
2023-04-18T23:03:10.986Z,72.40
2023-04-18T23:05:39.101Z,72.50
2023-04-18T23:08:07.141Z,72.49
2023-04-18T23:10:35.269Z,72.73
2023-04-18T23:13:03.084Z,73.01
2023-04-18T23:15:31.304Z,73.04
2023-04-18T23:17:59.255Z,72.94
2023-04-18T23:20:27.142Z,72.98
2023-04-18T23:22:56.048Z,72.98
2023-04-18T23:25:24.082Z,72.86
2023-04-18T23:27:51.858Z,72.84
2023-04-18T23:30:19.612Z,73.03
2023-04-18T23:32:47.601Z,72.86
2023-04-18T23:35:15.552Z,72.96
2023-04-18T23:37:43.824Z,72.93
2023-04-18T23:40:11.840Z,73.09
2023-04-18T23:42:39.664Z,72.71
2023-04-18T23:45:07.805Z,72.76
2023-04-18T23:47:35.786Z,72.81
2023-04-18T23:50:03.987Z,72.76
2023-04-18T23:52:31.837Z,72.70
2023-04-18T23:55:00.825Z,72.73
2023-04-18T23:57:28.937Z,72.76
2023-04-18T23:59:56.690Z,72.29
